Time;durP1;ratioP1;P1;durP2;ratioP2;P2;SDS_P1;SDS_P2;PMS_P1;PMS_P2;Temp;Humidity;BMP_temperature;BMP_pressure;BME280_temperature;BME280_humidity;BME280_pressure;Samples;Min_cycle;Max_cycle;Signal;HPM_P1;HPM_P2
2021/08/25 18:12:34;;;;;;;;;;;21.20;82.50;;;;;;5113298;27;19912;-91
2021/08/25 18:15:00;;;;;;;;;;;21.20;86.30;;;;;;5112098;28;20002;-90
2021/08/25 18:17:26;;;;;;;;;;;21.20;89.00;;;;;;5110717;28;19912;-91
2021/08/25 18:19:55;;;;;;;;;;;21.30;90.30;;;;;;5110699;28;19908;-90
2021/08/25 18:22:21;;;;;;;;;;;21.40;90.80;;;;;;5112139;28;20376;-91
2021/08/25 18:24:47;;;;;;;;;;;21.50;91.20;;;;;;5111958;28;19908;-91
2021/08/25 18:27:12;;;;;;;;;;;21.60;91.30;;;;;;5110550;28;19908;-92
2021/08/25 18:29:38;;;;;;;;;;;21.70;91.40;;;;;;5112108;28;19915;-91
2021/08/25 18:32:04;;;;;;;;;;;21.80;91.40;;;;;;5106996;28;19931;-90
2021/08/25 18:34:29;;;;;;;;;;;21.90;91.40;;;;;;5102408;28;19919;-90
2021/08/25 18:36:55;;;;;;;;;;;22.00;91.40;;;;;;5110449;28;19908;-92
2021/08/25 18:39:20;;;;;;;;;;;22.10;91.40;;;;;;5107986;28;19912;-91
2021/08/25 18:41:46;;;;;;;;;;;22.20;91.30;;;;;;5111847;28;19989;-90
2021/08/25 18:44:11;;;;;;;;;;;22.30;91.20;;;;;;5109193;28;19919;-94
2021/08/25 18:46:37;;;;;;;;;;;22.30;90.90;;;;;;5108811;28;19908;-94
2021/08/25 18:49:03;;;;;;;;;;;22.40;91.00;;;;;;5110087;28;19912;-93
2021/08/25 18:51:29;;;;;;;;;;;22.40;90.90;;;;;;5110423;28;19951;-93
2021/08/25 18:53:54;;;;;;;;;;;22.40;90.90;;;;;;5110151;28;19951;-93
2021/08/25 18:56:20;;;;;;;;;;;22.50;90.70;;;;;;5110308;28;19989;-94
2021/08/25 18:58:46;;;;;;;;;;;22.50;90.70;;;;;;5110208;28;19960;-93
2021/08/25 19:01:11;;;;;;;;;;;22.50;90.50;;;;;;5110205;28;19912;-96
2021/08/25 19:03:37;;;;;;;;;;;22.60;90.30;;;;;;5110201;28;19908;-94
2021/08/25 19:06:06;;;;;;;;;;;22.60;90.20;;;;;;5111439;28;19915;-95
2021/08/25 19:08:31;;;;;;;;;;;22.60;90.20;;;;;;5110265;28;19908;-93
2021/08/25 19:10:57;;;;;;;;;;;22.60;90.10;;;;;;5109605;28;19931;-95
2021/08/25 19:13:23;;;;;;;;;;;22.60;90.00;;;;;;5110022;28;19912;-94
2021/08/25 19:15:50;;;;;;;;;;;22.60;89.90;;;;;;5110098;28;19908;-94
2021/08/25 19:18:16;;;;;;;;;;;22.60;90.00;;;;;;5110018;28;19965;-93
2021/08/25 19:20:41;;;;;;;;;;;22.60;90.10;;;;;;5109800;28;19912;-95
2021/08/25 19:23:07;;;;;;;;;;;22.60;90.20;;;;;;5100882;28;19932;-95
2021/08/25 19:25:32;;;;;;;;;;;22.60;90.20;;;;;;5096116;28;19939;-95
2021/08/25 19:27:58;;;;;;;;;;;22.60;90.40;;;;;;5095995;28;19908;-95
2021/08/25 19:30:26;;;;;;;;;;;22.60;90.10;;;;;;5096025;28;19915;-93
2021/08/25 19:32:52;;;;;;;;;;;22.60;90.00;;;;;;5095811;28;19995;-92
2021/08/25 19:35:17;;;;;;;;;;;22.60;89.70;;;;;;5095866;28;19947;-94
2021/08/25 19:37:43;;;;;;;;;;;22.60;89.50;;;;;;5095851;28;19909;-92
2021/08/25 19:40:09;;;;;;;;;;;22.50;89.30;;;;;;5096877;28;19908;-93
2021/08/25 19:42:35;;;;;;;;;;;22.60;89.30;;;;;;5098182;28;19912;-95
2021/08/25 19:45:00;;;;;;;;;;;22.50;89.10;;;;;;5100280;28;19919;-94
2021/08/25 19:47:26;;;;;;;;;;;22.50;89.30;;;;;;5098870;28;19908;-93
2021/08/25 19:49:52;;;;;;;;;;;22.50;89.70;;;;;;5113038;28;20419;-95
2021/08/25 19:52:17;;;;;;;;;;;22.50;89.50;;;;;;5106044;28;19912;-94
2021/08/25 19:54:43;;;;;;;;;;;22.50;89.20;;;;;;5095662;28;20349;-94
2021/08/25 19:57:14;;;;;;;;;;;22.50;89.00;;;;;;5098160;28;20277;-95
2021/08/25 19:59:40;;;;;;;;;;;22.50;88.80;;;;;;5096368;28;19912;-92
2021/08/25 20:02:05;;;;;;;;;;;22.50;88.50;;;;;;5101275;28;20027;-93
2021/08/25 20:04:31;;;;;;;;;;;22.50;88.50;;;;;;5098659;28;19952;-91
2021/08/25 20:06:58;;;;;;;;;;;22.50;88.50;;;;;;5094932;28;19952;-92
